sensor_id;sensor_type;location;lat;lon;timestamp;temperature;humidity
20845;DHT22;10583;49.084;8.646;2022-11-20T00:00:37;4.80;99.90
20845;DHT22;10583;49.084;8.646;2022-11-20T00:03:03;4.90;99.90
20845;DHT22;10583;49.084;8.646;2022-11-20T00:05:33;4.90;99.90
20845;DHT22;10583;49.084;8.646;2022-11-20T00:08:00;4.90;99.90
20845;DHT22;10583;49.084;8.646;2022-11-20T00:10:26;4.90;99.90
20845;DHT22;10583;49.084;8.646;2022-11-20T00:12:53;4.80;99.90
20845;DHT22;10583;49.084;8.646;2022-11-20T00:15:20;4.90;99.90
20845;DHT22;10583;49.084;8.646;2022-11-20T00:17:46;4.90;99.90
20845;DHT22;10583;49.084;8.646;2022-11-20T00:20:14;5.00;99.90
20845;DHT22;10583;49.084;8.646;2022-11-20T00:22:42;5.00;99.90
20845;DHT22;10583;49.084;8.646;2022-11-20T00:25:09;5.00;99.90
20845;DHT22;10583;49.084;8.646;2022-11-20T00:27:36;5.00;99.90
20845;DHT22;10583;49.084;8.646;2022-11-20T00:30:04;5.10;99.90
20845;DHT22;10583;49.084;8.646;2022-11-20T00:32:31;5.10;99.90
20845;DHT22;10583;49.084;8.646;2022-11-20T00:34:57;5.10;99.90
20845;DHT22;10583;49.084;8.646;2022-11-20T00:37:24;5.10;99.90
20845;DHT22;10583;49.084;8.646;2022-11-20T00:39:52;5.10;99.90
20845;DHT22;10583;49.084;8.646;2022-11-20T00:42:20;5.20;99.90
20845;DHT22;10583;49.084;8.646;2022-11-20T00:44:46;5.20;99.90
20845;DHT22;10583;49.084;8.646;2022-11-20T00:47:13;5.10;99.90
20845;DHT22;10583;49.084;8.646;2022-11-20T00:49:40;5.10;99.90
20845;DHT22;10583;49.084;8.646;2022-11-20T00:52:06;5.20;99.90
20845;DHT22;10583;49.084;8.646;2022-11-20T00:54:33;5.10;99.90
20845;DHT22;10583;49.084;8.646;2022-11-20T00:57:01;5.10;99.90
20845;DHT22;10583;49.084;8.646;2022-11-20T00:59:28;5.10;99.90
20845;DHT22;10583;49.084;8.646;2022-11-20T01:01:54;5.00;99.90
20845;DHT22;10583;49.084;8.646;2022-11-20T01:04:21;5.00;99.90
20845;DHT22;10583;49.084;8.646;2022-11-20T01:06:48;5.00;99.90
20845;DHT22;10583;49.084;8.646;2022-11-20T01:09:14;5.00;99.90
20845;DHT22;10583;49.084;8.646;2022-11-20T01:11:42;4.90;99.90
20845;DHT22;10583;49.084;8.646;2022-11-20T01:14:12;5.00;99.90
20845;DHT22;10583;49.084;8.646;2022-11-20T01:16:41;5.10;99.90
20845;DHT22;10583;49.084;8.646;2022-11-20T01:19:11;5.10;99.90
20845;DHT22;10583;49.084;8.646;2022-11-20T01:21:40;5.20;99.90
20845;DHT22;10583;49.084;8.646;2022-11-20T01:24:10;5.20;99.90
20845;DHT22;10583;49.084;8.646;2022-11-20T01:26:39;5.30;99.90
20845;DHT22;10583;49.084;8.646;2022-11-20T01:29:08;5.30;99.90
20845;DHT22;10583;49.084;8.646;2022-11-20T01:31:38;5.30;99.90
20845;DHT22;10583;49.084;8.646;2022-11-20T01:34:07;5.30;99.90
20845;DHT22;10583;49.084;8.646;2022-11-20T01:36:36;5.30;99.90
20845;DHT22;10583;49.084;8.646;2022-11-20T01:39:05;5.40;99.90
20845;DHT22;10583;49.084;8.646;2022-11-20T01:41:33;5.40;99.90
20845;DHT22;10583;49.084;8.646;2022-11-20T01:44:43;5.50;99.90
20845;DHT22;10583;49.084;8.646;2022-11-20T01:47:16;5.50;99.90
20845;DHT22;10583;49.084;8.646;2022-11-20T01:49:46;5.60;99.90
20845;DHT22;10583;49.084;8.646;2022-11-20T01:52:17;5.70;99.90
20845;DHT22;10583;49.084;8.646;2022-11-20T01:54:48;5.70;99.90
20845;DHT22;10583;49.084;8.646;2022-11-20T01:57:18;5.80;99.90
20845;DHT22;10583;49.084;8.646;2022-11-20T01:59:51;5.80;99.90
20845;DHT22;10583;49.084;8.646;2022-11-20T02:02:21;5.90;99.90
20845;DHT22;10583;49.084;8.646;2022-11-20T02:04:49;5.90;99.90
20845;DHT22;10583;49.084;8.646;2022-11-20T02:07:19;5.90;99.90
20845;DHT22;10583;49.084;8.646;2022-11-20T02:09:46;6.00;99.90
20845;DHT22;10583;49.084;8.646;2022-11-20T02:12:13;6.00;99.90
20845;DHT22;10583;49.084;8.646;2022-11-20T02:14:54;6.00;99.90
20845;DHT22;10583;49.084;8.646;2022-11-20T02:17:23;6.10;99.90
20845;DHT22;10583;49.084;8.646;2022-11-20T02:19:50;6.10;99.90
20845;DHT22;10583;49.084;8.646;2022-11-20T02:22:20;6.10;99.90
20845;DHT22;10583;49.084;8.646;2022-11-20T02:24:50;6.20;99.90
20845;DHT22;10583;49.084;8.646;2022-11-20T02:27:18;6.30;99.90
20845;DHT22;10583;49.084;8.646;2022-11-20T02:29:47;6.30;99.90
20845;DHT22;10583;49.084;8.646;2022-11-20T02:32:19;6.40;99.90
20845;DHT22;10583;49.084;8.646;2022-11-20T02:34:46;6.40;99.90
20845;DHT22;10583;49.084;8.646;2022-11-20T02:37:13;6.40;99.90
20845;DHT22;10583;49.084;8.646;2022-11-20T02:39:40;6.40;99.90
20845;DHT22;10583;49.084;8.646;2022-11-20T02:42:09;6.50;99.90
20845;DHT22;10583;49.084;8.646;2022-11-20T02:44:36;6.50;99.90
20845;DHT22;10583;49.084;8.646;2022-11-20T02:47:03;6.60;99.90
20845;DHT22;10583;49.084;8.646;2022-11-20T02:49:29;6.60;99.90
20845;DHT22;10583;49.084;8.646;2022-11-20T02:51:56;6.60;99.90
20845;DHT22;10583;49.084;8.646;2022-11-20T02:54:23;6.60;99.90
20845;DHT22;10583;49.084;8.646;2022-11-20T02:56:50;6.60;99.90
20845;DHT22;10583;49.084;8.646;2022-11-20T02:59:18;6.60;99.90
20845;DHT22;10583;49.084;8.646;2022-11-20T03:01:45;6.60;99.90
20845;DHT22;10583;49.084;8.646;2022-11-20T03:04:11;6.70;99.90
20845;DHT22;10583;49.084;8.646;2022-11-20T03:06:38;6.70;99.90
20845;DHT22;10583;49.084;8.646;2022-11-20T03:09:05;6.70;99.90
20845;DHT22;10583;49.084;8.646;2022-11-20T03:11:32;6.60;99.90
20845;DHT22;10583;49.084;8.646;2022-11-20T03:14:02;6.60;99.90
20845;DHT22;10583;49.084;8.646;2022-11-20T03:16:31;6.60;99.90
20845;DHT22;10583;49.084;8.646;2022-11-20T03:18:57;6.60;99.90
20845;DHT22;10583;49.084;8.646;2022-11-20T03:21:24;6.60;99.90
20845;DHT22;10583;49.084;8.646;2022-11-20T03:23:52;6.60;99.90
20845;DHT22;10583;49.084;8.646;2022-11-20T03:26:20;6.60;99.90
20845;DHT22;10583;49.084;8.646;2022-11-20T03:28:48;6.70;99.90
20845;DHT22;10583;49.084;8.646;2022-11-20T03:31:18;6.70;99.90
20845;DHT22;10583;49.084;8.646;2022-11-20T03:33:47;6.70;99.90
20845;DHT22;10583;49.084;8.646;2022-11-20T03:36:15;6.70;99.90
20845;DHT22;10583;49.084;8.646;2022-11-20T03:38:42;6.70;99.90
20845;DHT22;10583;49.084;8.646;2022-11-20T03:41:10;6.70;99.90
20845;DHT22;10583;49.084;8.646;2022-11-20T03:43:37;6.70;99.90
20845;DHT22;10583;49.084;8.646;2022-11-20T03:46:05;6.70;99.90
20845;DHT22;10583;49.084;8.646;2022-11-20T03:48:32;6.70;99.90
20845;DHT22;10583;49.084;8.646;2022-11-20T03:51:10;6.70;99.90
20845;DHT22;10583;49.084;8.646;2022-11-20T03:53:37;6.70;99.90
20845;DHT22;10583;49.084;8.646;2022-11-20T03:56:05;6.70;99.90
20845;DHT22;10583;49.084;8.646;2022-11-20T03:58:32;6.70;99.90
20845;DHT22;10583;49.084;8.646;2022-11-20T04:01:05;6.70;99.90
20845;DHT22;10583;49.084;8.646;2022-11-20T04:03:32;6.70;99.90
20845;DHT22;10583;49.084;8.646;2022-11-20T04:06:02;6.70;99.90
20845;DHT22;10583;49.084;8.646;2022-11-20T04:08:31;6.70;99.90
20845;DHT22;10583;49.084;8.646;2022-11-20T04:11:08;6.70;99.90
20845;DHT22;10583;49.084;8.646;2022-11-20T04:13:35;6.70;99.90
20845;DHT22;10583;49.084;8.646;2022-11-20T04:16:02;6.70;99.90
20845;DHT22;10583;49.084;8.646;2022-11-20T04:18:29;6.70;99.90
20845;DHT22;10583;49.084;8.646;2022-11-20T04:20:56;6.80;99.90
20845;DHT22;10583;49.084;8.646;2022-11-20T04:23:23;6.80;99.90
20845;DHT22;10583;49.084;8.646;2022-11-20T04:25:51;6.80;99.90
20845;DHT22;10583;49.084;8.646;2022-11-20T04:28:18;6.80;99.90
20845;DHT22;10583;49.084;8.646;2022-11-20T04:30:45;6.80;99.90
20845;DHT22;10583;49.084;8.646;2022-11-20T04:33:11;6.80;99.90
20845;DHT22;10583;49.084;8.646;2022-11-20T04:35:38;6.80;99.90
20845;DHT22;10583;49.084;8.646;2022-11-20T04:38:05;6.80;99.90
20845;DHT22;10583;49.084;8.646;2022-11-20T04:40:31;6.80;99.90
20845;DHT22;10583;49.084;8.646;2022-11-20T04:43:00;6.80;99.90
20845;DHT22;10583;49.084;8.646;2022-11-20T04:45:26;6.80;99.90
20845;DHT22;10583;49.084;8.646;2022-11-20T04:47:53;6.80;99.90
20845;DHT22;10583;49.084;8.646;2022-11-20T04:50:20;6.80;99.90
20845;DHT22;10583;49.084;8.646;2022-11-20T04:52:46;6.80;99.90
20845;DHT22;10583;49.084;8.646;2022-11-20T04:55:13;6.80;99.90
20845;DHT22;10583;49.084;8.646;2022-11-20T04:57:40;6.80;99.90
20845;DHT22;10583;49.084;8.646;2022-11-20T05:00:09;6.80;99.90
20845;DHT22;10583;49.084;8.646;2022-11-20T05:02:36;6.80;99.90
20845;DHT22;10583;49.084;8.646;2022-11-20T05:05:03;6.80;99.90
20845;DHT22;10583;49.084;8.646;2022-11-20T05:07:30;6.80;99.90
20845;DHT22;10583;49.084;8.646;2022-11-20T05:09:57;6.80;99.90
20845;DHT22;10583;49.084;8.646;2022-11-20T05:12:23;6.90;99.90
20845;DHT22;10583;49.084;8.646;2022-11-20T05:14:50;6.90;99.90
20845;DHT22;10583;49.084;8.646;2022-11-20T05:17:18;6.90;99.90
20845;DHT22;10583;49.084;8.646;2022-11-20T05:19:45;6.90;99.90
20845;DHT22;10583;49.084;8.646;2022-11-20T05:22:11;6.90;99.90
20845;DHT22;10583;49.084;8.646;2022-11-20T05:24:38;6.90;99.90
20845;DHT22;10583;49.084;8.646;2022-11-20T05:27:05;6.90;99.90
20845;DHT22;10583;49.084;8.646;2022-11-20T05:29:31;6.90;99.90
20845;DHT22;10583;49.084;8.646;2022-11-20T05:31:58;6.90;99.90
20845;DHT22;10583;49.084;8.646;2022-11-20T05:34:26;6.90;99.90
20845;DHT22;10583;49.084;8.646;2022-11-20T05:36:53;6.90;99.90
20845;DHT22;10583;49.084;8.646;2022-11-20T05:39:19;6.90;99.90
20845;DHT22;10583;49.084;8.646;2022-11-20T05:41:46;6.90;99.90
20845;DHT22;10583;49.084;8.646;2022-11-20T05:44:33;6.90;99.90
20845;DHT22;10583;49.084;8.646;2022-11-20T05:46:59;6.90;99.90
20845;DHT22;10583;49.084;8.646;2022-11-20T05:49:27;6.90;99.90
20845;DHT22;10583;49.084;8.646;2022-11-20T05:51:54;6.90;99.90
20845;DHT22;10583;49.084;8.646;2022-11-20T05:54:21;6.90;99.90
20845;DHT22;10583;49.084;8.646;2022-11-20T05:56:47;6.90;99.90
20845;DHT22;10583;49.084;8.646;2022-11-20T05:59:15;7.00;99.90
20845;DHT22;10583;49.084;8.646;2022-11-20T06:01:44;6.90;99.90
20845;DHT22;10583;49.084;8.646;2022-11-20T06:04:11;7.00;99.90
20845;DHT22;10583;49.084;8.646;2022-11-20T06:06:39;7.00;99.90
20845;DHT22;10583;49.084;8.646;2022-11-20T06:09:06;7.00;99.90
20845;DHT22;10583;49.084;8.646;2022-11-20T06:11:33;7.00;99.90
20845;DHT22;10583;49.084;8.646;2022-11-20T06:13:59;7.00;99.90
20845;DHT22;10583;49.084;8.646;2022-11-20T06:16:26;7.00;99.90
20845;DHT22;10583;49.084;8.646;2022-11-20T06:18:53;7.00;99.90
20845;DHT22;10583;49.084;8.646;2022-11-20T06:21:21;7.00;99.90
20845;DHT22;10583;49.084;8.646;2022-11-20T06:23:52;7.00;99.90
20845;DHT22;10583;49.084;8.646;2022-11-20T06:26:20;7.00;99.90
20845;DHT22;10583;49.084;8.646;2022-11-20T06:28:48;7.00;99.90
20845;DHT22;10583;49.084;8.646;2022-11-20T06:31:16;7.00;99.90
20845;DHT22;10583;49.084;8.646;2022-11-20T06:33:43;7.00;99.90
20845;DHT22;10583;49.084;8.646;2022-11-20T06:36:11;7.00;99.90
20845;DHT22;10583;49.084;8.646;2022-11-20T06:38:38;7.00;99.90
20845;DHT22;10583;49.084;8.646;2022-11-20T06:41:09;6.90;99.90
20845;DHT22;10583;49.084;8.646;2022-11-20T06:43:36;6.90;99.90
20845;DHT22;10583;49.084;8.646;2022-11-20T06:46:03;6.80;99.90
20845;DHT22;10583;49.084;8.646;2022-11-20T06:48:30;6.90;99.90
20845;DHT22;10583;49.084;8.646;2022-11-20T06:50:57;6.90;99.90
20845;DHT22;10583;49.084;8.646;2022-11-20T06:53:24;6.80;99.90
20845;DHT22;10583;49.084;8.646;2022-11-20T06:55:51;6.80;99.90
20845;DHT22;10583;49.084;8.646;2022-11-20T06:58:20;6.90;99.90
20845;DHT22;10583;49.084;8.646;2022-11-20T07:00:46;6.90;99.90
20845;DHT22;10583;49.084;8.646;2022-11-20T07:03:13;6.90;99.90
20845;DHT22;10583;49.084;8.646;2022-11-20T07:05:40;6.90;99.90
20845;DHT22;10583;49.084;8.646;2022-11-20T07:08:07;6.90;99.90
20845;DHT22;10583;49.084;8.646;2022-11-20T07:10:34;6.90;99.90
20845;DHT22;10583;49.084;8.646;2022-11-20T07:13:01;6.90;99.90
20845;DHT22;10583;49.084;8.646;2022-11-20T07:15:29;6.90;99.90
20845;DHT22;10583;49.084;8.646;2022-11-20T07:17:58;6.90;99.90
20845;DHT22;10583;49.084;8.646;2022-11-20T07:20:25;6.90;99.90
20845;DHT22;10583;49.084;8.646;2022-11-20T07:22:53;6.90;99.90
20845;DHT22;10583;49.084;8.646;2022-11-20T07:25:21;6.90;99.90
20845;DHT22;10583;49.084;8.646;2022-11-20T07:27:47;6.90;99.90
20845;DHT22;10583;49.084;8.646;2022-11-20T07:30:14;6.90;99.90
20845;DHT22;10583;49.084;8.646;2022-11-20T07:32:45;6.90;99.90
20845;DHT22;10583;49.084;8.646;2022-11-20T07:35:12;6.90;99.90
20845;DHT22;10583;49.084;8.646;2022-11-20T07:37:39;6.90;99.90
20845;DHT22;10583;49.084;8.646;2022-11-20T07:40:06;6.90;99.90
20845;DHT22;10583;49.084;8.646;2022-11-20T07:42:33;6.90;99.90
20845;DHT22;10583;49.084;8.646;2022-11-20T07:45:00;6.90;99.90
20845;DHT22;10583;49.084;8.646;2022-11-20T07:47:26;6.90;99.90
20845;DHT22;10583;49.084;8.646;2022-11-20T07:49:54;6.90;99.90
20845;DHT22;10583;49.084;8.646;2022-11-20T07:52:21;6.90;99.90
20845;DHT22;10583;49.084;8.646;2022-11-20T07:54:48;6.90;99.90
20845;DHT22;10583;49.084;8.646;2022-11-20T07:57:14;6.90;99.90
20845;DHT22;10583;49.084;8.646;2022-11-20T07:59:41;6.90;99.90
20845;DHT22;10583;49.084;8.646;2022-11-20T08:02:10;6.90;99.90
20845;DHT22;10583;49.084;8.646;2022-11-20T08:04:37;6.90;99.90
20845;DHT22;10583;49.084;8.646;2022-11-20T08:07:05;6.90;99.90
20845;DHT22;10583;49.084;8.646;2022-11-20T08:09:31;6.90;99.90
20845;DHT22;10583;49.084;8.646;2022-11-20T08:11:58;6.90;99.90
20845;DHT22;10583;49.084;8.646;2022-11-20T08:14:43;6.90;99.90
20845;DHT22;10583;49.084;8.646;2022-11-20T08:17:10;6.90;99.90
20845;DHT22;10583;49.084;8.646;2022-11-20T08:19:36;6.90;99.90
20845;DHT22;10583;49.084;8.646;2022-11-20T08:22:04;6.90;99.90
20845;DHT22;10583;49.084;8.646;2022-11-20T08:24:31;6.90;99.90
20845;DHT22;10583;49.084;8.646;2022-11-20T08:26:58;6.90;99.90
20845;DHT22;10583;49.084;8.646;2022-11-20T08:29:26;6.90;99.90
20845;DHT22;10583;49.084;8.646;2022-11-20T08:31:52;7.00;99.90
20845;DHT22;10583;49.084;8.646;2022-11-20T08:34:19;7.00;99.90
20845;DHT22;10583;49.084;8.646;2022-11-20T08:36:46;7.00;99.90
20845;DHT22;10583;49.084;8.646;2022-11-20T08:39:14;7.00;99.90
20845;DHT22;10583;49.084;8.646;2022-11-20T08:41:44;7.00;99.90
20845;DHT22;10583;49.084;8.646;2022-11-20T08:44:11;7.00;99.90
20845;DHT22;10583;49.084;8.646;2022-11-20T08:46:39;7.00;99.90
20845;DHT22;10583;49.084;8.646;2022-11-20T08:49:07;7.10;99.90
20845;DHT22;10583;49.084;8.646;2022-11-20T08:51:35;7.10;99.90
20845;DHT22;10583;49.084;8.646;2022-11-20T08:54:02;7.10;99.90
20845;DHT22;10583;49.084;8.646;2022-11-20T08:56:31;7.20;99.90
20845;DHT22;10583;49.084;8.646;2022-11-20T08:58:58;7.20;99.90
20845;DHT22;10583;49.084;8.646;2022-11-20T09:01:25;7.20;99.90
20845;DHT22;10583;49.084;8.646;2022-11-20T09:03:52;7.30;99.90
20845;DHT22;10583;49.084;8.646;2022-11-20T09:06:21;7.30;99.90
20845;DHT22;10583;49.084;8.646;2022-11-20T09:08:51;7.30;99.90
20845;DHT22;10583;49.084;8.646;2022-11-20T09:11:18;7.30;99.90
20845;DHT22;10583;49.084;8.646;2022-11-20T09:13:46;7.30;99.90
20845;DHT22;10583;49.084;8.646;2022-11-20T09:16:13;7.30;99.90
20845;DHT22;10583;49.084;8.646;2022-11-20T09:18:39;7.30;99.90
20845;DHT22;10583;49.084;8.646;2022-11-20T09:21:09;7.30;99.90
20845;DHT22;10583;49.084;8.646;2022-11-20T09:23:37;7.20;99.90
20845;DHT22;10583;49.084;8.646;2022-11-20T09:26:05;7.20;99.90
20845;DHT22;10583;49.084;8.646;2022-11-20T09:28:32;7.10;99.90
20845;DHT22;10583;49.084;8.646;2022-11-20T09:31:00;7.10;99.90
20845;DHT22;10583;49.084;8.646;2022-11-20T09:33:32;7.10;99.90
20845;DHT22;10583;49.084;8.646;2022-11-20T09:35:58;7.20;99.90
20845;DHT22;10583;49.084;8.646;2022-11-20T09:38:25;7.20;99.90
20845;DHT22;10583;49.084;8.646;2022-11-20T09:40:57;7.30;99.90
20845;DHT22;10583;49.084;8.646;2022-11-20T09:43:32;7.40;99.90
20845;DHT22;10583;49.084;8.646;2022-11-20T09:46:09;7.40;99.90
20845;DHT22;10583;49.084;8.646;2022-11-20T09:48:51;7.40;99.90
20845;DHT22;10583;49.084;8.646;2022-11-20T09:51:33;7.50;99.90
20845;DHT22;10583;49.084;8.646;2022-11-20T09:54:13;7.60;99.90
20845;DHT22;10583;49.084;8.646;2022-11-20T09:56:43;7.60;99.90
20845;DHT22;10583;49.084;8.646;2022-11-20T09:59:20;7.70;99.90
20845;DHT22;10583;49.084;8.646;2022-11-20T10:01:50;7.70;99.90
20845;DHT22;10583;49.084;8.646;2022-11-20T10:04:20;7.80;99.90
20845;DHT22;10583;49.084;8.646;2022-11-20T10:06:51;8.00;99.90
20845;DHT22;10583;49.084;8.646;2022-11-20T10:09:25;7.90;99.90
20845;DHT22;10583;49.084;8.646;2022-11-20T10:12:06;7.80;99.90
20845;DHT22;10583;49.084;8.646;2022-11-20T10:14:44;7.80;99.90
20845;DHT22;10583;49.084;8.646;2022-11-20T10:17:24;7.70;99.90
20845;DHT22;10583;49.084;8.646;2022-11-20T10:20:07;7.70;99.90
20845;DHT22;10583;49.084;8.646;2022-11-20T10:22:56;7.70;99.90
20845;DHT22;10583;49.084;8.646;2022-11-20T10:25:33;7.70;99.90
20845;DHT22;10583;49.084;8.646;2022-11-20T10:28:15;7.60;99.90
20845;DHT22;10583;49.084;8.646;2022-11-20T10:30:44;7.60;99.90
20845;DHT22;10583;49.084;8.646;2022-11-20T10:33:16;7.50;99.90
20845;DHT22;10583;49.084;8.646;2022-11-20T10:35:50;7.50;99.90
20845;DHT22;10583;49.084;8.646;2022-11-20T10:38:23;7.50;99.90
20845;DHT22;10583;49.084;8.646;2022-11-20T10:40:53;7.50;99.90
20845;DHT22;10583;49.084;8.646;2022-11-20T10:43:41;7.60;99.90
20845;DHT22;10583;49.084;8.646;2022-11-20T10:46:14;7.60;99.90
20845;DHT22;10583;49.084;8.646;2022-11-20T10:48:44;7.80;99.90
20845;DHT22;10583;49.084;8.646;2022-11-20T10:51:18;8.00;99.90
20845;DHT22;10583;49.084;8.646;2022-11-20T10:53:56;8.10;99.90
20845;DHT22;10583;49.084;8.646;2022-11-20T10:56:30;8.20;99.90
20845;DHT22;10583;49.084;8.646;2022-11-20T10:59:19;8.30;99.90
20845;DHT22;10583;49.084;8.646;2022-11-20T11:01:51;8.60;99.90
20845;DHT22;10583;49.084;8.646;2022-11-20T11:04:34;8.80;99.90
20845;DHT22;10583;49.084;8.646;2022-11-20T11:07:08;9.10;99.90
20845;DHT22;10583;49.084;8.646;2022-11-20T11:09:42;9.20;99.90
20845;DHT22;10583;49.084;8.646;2022-11-20T11:12:10;9.10;99.90
20845;DHT22;10583;49.084;8.646;2022-11-20T11:14:46;9.00;99.90
20845;DHT22;10583;49.084;8.646;2022-11-20T11:17:25;8.80;99.90
20845;DHT22;10583;49.084;8.646;2022-11-20T11:19:59;8.50;99.90
20845;DHT22;10583;49.084;8.646;2022-11-20T11:22:28;8.40;99.90
20845;DHT22;10583;49.084;8.646;2022-11-20T11:24:55;8.50;99.90
20845;DHT22;10583;49.084;8.646;2022-11-20T11:27:22;8.60;99.90
20845;DHT22;10583;49.084;8.646;2022-11-20T11:29:49;8.70;99.90
20845;DHT22;10583;49.084;8.646;2022-11-20T11:32:18;8.70;99.90
20845;DHT22;10583;49.084;8.646;2022-11-20T11:35:00;8.60;99.90
20845;DHT22;10583;49.084;8.646;2022-11-20T11:37:31;8.50;99.90
20845;DHT22;10583;49.084;8.646;2022-11-20T11:39:59;8.40;99.90
20845;DHT22;10583;49.084;8.646;2022-11-20T11:42:28;8.40;99.90
20845;DHT22;10583;49.084;8.646;2022-11-20T11:44:56;8.70;99.90
20845;DHT22;10583;49.084;8.646;2022-11-20T11:47:35;8.90;99.90
20845;DHT22;10583;49.084;8.646;2022-11-20T11:50:15;9.10;99.90
20845;DHT22;10583;49.084;8.646;2022-11-20T11:52:46;9.10;99.90
20845;DHT22;10583;49.084;8.646;2022-11-20T11:55:19;9.10;99.90
20845;DHT22;10583;49.084;8.646;2022-11-20T11:57:50;9.00;99.90
20845;DHT22;10583;49.084;8.646;2022-11-20T12:00:20;9.00;99.90
20845;DHT22;10583;49.084;8.646;2022-11-20T12:02:54;9.10;99.90
20845;DHT22;10583;49.084;8.646;2022-11-20T12:05:27;9.10;99.90
20845;DHT22;10583;49.084;8.646;2022-11-20T12:07:57;9.10;99.90
20845;DHT22;10583;49.084;8.646;2022-11-20T12:10:37;9.00;99.90
20845;DHT22;10583;49.084;8.646;2022-11-20T12:13:20;9.00;99.90
20845;DHT22;10583;49.084;8.646;2022-11-20T12:15:48;9.10;99.90
20845;DHT22;10583;49.084;8.646;2022-11-20T12:18:17;9.60;99.90
20845;DHT22;10583;49.084;8.646;2022-11-20T12:20:56;10.30;99.90
20845;DHT22;10583;49.084;8.646;2022-11-20T12:23:30;10.80;99.90
20845;DHT22;10583;49.084;8.646;2022-11-20T12:26:05;11.00;99.90
20845;DHT22;10583;49.084;8.646;2022-11-20T12:28:43;10.80;99.90
20845;DHT22;10583;49.084;8.646;2022-11-20T12:31:25;10.70;99.90
20845;DHT22;10583;49.084;8.646;2022-11-20T12:34:09;10.60;99.90
20845;DHT22;10583;49.084;8.646;2022-11-20T12:36:44;10.70;99.90
20845;DHT22;10583;49.084;8.646;2022-11-20T12:39:27;10.70;99.90
20845;DHT22;10583;49.084;8.646;2022-11-20T12:42:33;10.40;99.90
20845;DHT22;10583;49.084;8.646;2022-11-20T12:51:37;9.50;99.90
20845;DHT22;10583;49.084;8.646;2022-11-20T12:54:36;9.40;99.90
20845;DHT22;10583;49.084;8.646;2022-11-20T12:57:14;9.40;99.90
20845;DHT22;10583;49.084;8.646;2022-11-20T13:00:01;9.50;99.90
20845;DHT22;10583;49.084;8.646;2022-11-20T13:02:36;9.60;99.90
20845;DHT22;10583;49.084;8.646;2022-11-20T13:05:15;9.90;99.90
20845;DHT22;10583;49.084;8.646;2022-11-20T13:07:45;10.20;99.90
20845;DHT22;10583;49.084;8.646;2022-11-20T13:10:19;10.40;99.90
20845;DHT22;10583;49.084;8.646;2022-11-20T13:12:51;10.70;99.90
20845;DHT22;10583;49.084;8.646;2022-11-20T13:15:33;11.00;99.90
20845;DHT22;10583;49.084;8.646;2022-11-20T13:18:04;10.90;99.90
20845;DHT22;10583;49.084;8.646;2022-11-20T13:20:35;11.00;99.90
20845;DHT22;10583;49.084;8.646;2022-11-20T13:23:02;11.20;99.90
20845;DHT22;10583;49.084;8.646;2022-11-20T13:25:31;11.40;99.90
20845;DHT22;10583;49.084;8.646;2022-11-20T13:28:00;11.30;99.90
20845;DHT22;10583;49.084;8.646;2022-11-20T13:30:29;11.10;99.90
20845;DHT22;10583;49.084;8.646;2022-11-20T13:32:58;10.80;99.90
20845;DHT22;10583;49.084;8.646;2022-11-20T13:35:31;10.70;99.90
20845;DHT22;10583;49.084;8.646;2022-11-20T13:38:06;10.40;99.90
20845;DHT22;10583;49.084;8.646;2022-11-20T13:40:37;10.00;99.90
20845;DHT22;10583;49.084;8.646;2022-11-20T13:43:19;9.90;99.90
20845;DHT22;10583;49.084;8.646;2022-11-20T13:45:58;9.70;99.90
20845;DHT22;10583;49.084;8.646;2022-11-20T13:48:27;9.50;99.90
20845;DHT22;10583;49.084;8.646;2022-11-20T13:51:02;9.50;99.90
20845;DHT22;10583;49.084;8.646;2022-11-20T13:53:45;9.40;99.90
20845;DHT22;10583;49.084;8.646;2022-11-20T13:56:24;9.30;99.90
20845;DHT22;10583;49.084;8.646;2022-11-20T13:58:58;9.30;99.90
20845;DHT22;10583;49.084;8.646;2022-11-20T14:01:28;9.40;99.90
20845;DHT22;10583;49.084;8.646;2022-11-20T14:03:57;9.40;99.90
20845;DHT22;10583;49.084;8.646;2022-11-20T14:06:26;9.30;99.90
20845;DHT22;10583;49.084;8.646;2022-11-20T14:08:53;9.30;99.90
20845;DHT22;10583;49.084;8.646;2022-11-20T14:11:23;9.40;99.90
20845;DHT22;10583;49.084;8.646;2022-11-20T14:13:53;9.40;99.90
20845;DHT22;10583;49.084;8.646;2022-11-20T14:16:20;9.40;99.90
20845;DHT22;10583;49.084;8.646;2022-11-20T14:18:47;9.40;99.90
20845;DHT22;10583;49.084;8.646;2022-11-20T14:21:22;9.30;99.90
20845;DHT22;10583;49.084;8.646;2022-11-20T14:23:48;9.20;99.90
20845;DHT22;10583;49.084;8.646;2022-11-20T14:26:18;9.10;99.90
20845;DHT22;10583;49.084;8.646;2022-11-20T14:28:48;9.00;99.90
20845;DHT22;10583;49.084;8.646;2022-11-20T14:31:21;9.00;99.90
20845;DHT22;10583;49.084;8.646;2022-11-20T14:33:49;8.90;99.90
20845;DHT22;10583;49.084;8.646;2022-11-20T14:36:18;8.90;99.90
20845;DHT22;10583;49.084;8.646;2022-11-20T14:38:47;8.80;99.90
20845;DHT22;10583;49.084;8.646;2022-11-20T14:41:17;8.80;99.90
20845;DHT22;10583;49.084;8.646;2022-11-20T14:43:47;8.70;99.90
20845;DHT22;10583;49.084;8.646;2022-11-20T14:46:16;8.70;99.90
20845;DHT22;10583;49.084;8.646;2022-11-20T14:48:46;8.70;99.90
20845;DHT22;10583;49.084;8.646;2022-11-20T14:51:27;8.60;99.90
20845;DHT22;10583;49.084;8.646;2022-11-20T14:53:55;8.60;99.90
20845;DHT22;10583;49.084;8.646;2022-11-20T14:56:23;8.60;99.90
20845;DHT22;10583;49.084;8.646;2022-11-20T14:58:58;8.60;99.90
20845;DHT22;10583;49.084;8.646;2022-11-20T15:01:29;8.50;99.90
20845;DHT22;10583;49.084;8.646;2022-11-20T15:04:09;8.50;99.90
20845;DHT22;10583;49.084;8.646;2022-11-20T15:06:36;8.40;99.90
20845;DHT22;10583;49.084;8.646;2022-11-20T15:09:04;8.50;99.90
20845;DHT22;10583;49.084;8.646;2022-11-20T15:11:34;8.40;99.90
20845;DHT22;10583;49.084;8.646;2022-11-20T15:14:05;8.40;99.90
20845;DHT22;10583;49.084;8.646;2022-11-20T15:16:33;8.40;99.90
20845;DHT22;10583;49.084;8.646;2022-11-20T15:19:00;8.40;99.90
20845;DHT22;10583;49.084;8.646;2022-11-20T15:21:28;8.30;99.90
20845;DHT22;10583;49.084;8.646;2022-11-20T15:23:55;8.30;99.90
20845;DHT22;10583;49.084;8.646;2022-11-20T15:26:25;8.20;99.90
20845;DHT22;10583;49.084;8.646;2022-11-20T15:28:52;8.20;99.90
20845;DHT22;10583;49.084;8.646;2022-11-20T15:31:22;8.10;99.90
20845;DHT22;10583;49.084;8.646;2022-11-20T15:33:49;8.10;99.90
20845;DHT22;10583;49.084;8.646;2022-11-20T15:36:16;8.00;99.90
20845;DHT22;10583;49.084;8.646;2022-11-20T15:38:42;8.00;99.90
20845;DHT22;10583;49.084;8.646;2022-11-20T15:41:09;8.00;99.90
20845;DHT22;10583;49.084;8.646;2022-11-20T15:43:36;8.00;99.90
20845;DHT22;10583;49.084;8.646;2022-11-20T15:46:05;7.90;99.90
20845;DHT22;10583;49.084;8.646;2022-11-20T15:48:38;8.00;99.90
20845;DHT22;10583;49.084;8.646;2022-11-20T15:51:14;8.00;99.90
20845;DHT22;10583;49.084;8.646;2022-11-20T15:53:43;8.00;99.90
20845;DHT22;10583;49.084;8.646;2022-11-20T15:56:12;8.00;99.90
20845;DHT22;10583;49.084;8.646;2022-11-20T15:58:39;8.00;99.90
20845;DHT22;10583;49.084;8.646;2022-11-20T16:01:10;8.00;99.90
20845;DHT22;10583;49.084;8.646;2022-11-20T16:03:38;8.10;99.90
20845;DHT22;10583;49.084;8.646;2022-11-20T16:06:05;8.00;99.90
20845;DHT22;10583;49.084;8.646;2022-11-20T16:08:31;8.00;99.90